sensor_id;sensor_type;location;lat;lon;timestamp;P1;durP1;ratioP1;P2;durP2;ratioP2
1460;SDS011;724;49.910;12.530;2023-12-20T00:00:34;8.50;;;8.02;;
1460;SDS011;724;49.910;12.530;2023-12-20T00:03:02;9.48;;;8.98;;
1460;SDS011;724;49.910;12.530;2023-12-20T00:05:29;9.02;;;8.52;;
1460;SDS011;724;49.910;12.530;2023-12-20T00:07:57;8.73;;;8.23;;
1460;SDS011;724;49.910;12.530;2023-12-20T00:10:25;9.52;;;9.02;;
1460;SDS011;724;49.910;12.530;2023-12-20T00:12:53;8.70;;;8.20;;
1460;SDS011;724;49.910;12.530;2023-12-20T00:15:20;9.60;;;9.10;;
1460;SDS011;724;49.910;12.530;2023-12-20T00:17:46;9.45;;;8.95;;
1460;SDS011;724;49.910;12.530;2023-12-20T00:20:13;9.52;;;9.02;;
1460;SDS011;724;49.910;12.530;2023-12-20T00:22:39;9.20;;;8.70;;
1460;SDS011;724;49.910;12.530;2023-12-20T00:25:06;8.45;;;7.97;;
1460;SDS011;724;49.910;12.530;2023-12-20T00:27:34;9.15;;;8.65;;
1460;SDS011;724;49.910;12.530;2023-12-20T00:30:03;9.50;;;9.00;;
1460;SDS011;724;49.910;12.530;2023-12-20T00:32:30;9.20;;;8.70;;
1460;SDS011;724;49.910;12.530;2023-12-20T00:34:57;8.90;;;8.40;;
1460;SDS011;724;49.910;12.530;2023-12-20T00:37:24;9.13;;;8.63;;
1460;SDS011;724;49.910;12.530;2023-12-20T00:39:51;9.32;;;8.82;;
1460;SDS011;724;49.910;12.530;2023-12-20T00:42:18;9.20;;;8.70;;
1460;SDS011;724;49.910;12.530;2023-12-20T00:44:46;9.00;;;8.50;;
1460;SDS011;724;49.910;12.530;2023-12-20T00:47:14;9.55;;;9.05;;
1460;SDS011;724;49.910;12.530;2023-12-20T00:49:41;9.60;;;9.10;;
1460;SDS011;724;49.910;12.530;2023-12-20T00:52:07;8.90;;;8.40;;
1460;SDS011;724;49.910;12.530;2023-12-20T00:54:34;9.13;;;8.63;;
1460;SDS011;724;49.910;12.530;2023-12-20T00:57:01;8.95;;;8.45;;
1460;SDS011;724;49.910;12.530;2023-12-20T00:59:27;9.60;;;9.10;;
1460;SDS011;724;49.910;12.530;2023-12-20T01:01:54;9.30;;;8.80;;
1460;SDS011;724;49.910;12.530;2023-12-20T01:04:25;9.85;;;9.35;;
1460;SDS011;724;49.910;12.530;2023-12-20T01:06:51;9.68;;;9.18;;
1460;SDS011;724;49.910;12.530;2023-12-20T01:09:18;9.40;;;8.90;;
1460;SDS011;724;49.910;12.530;2023-12-20T01:11:48;10.00;;;9.50;;
1460;SDS011;724;49.910;12.530;2023-12-20T01:14:15;9.70;;;9.20;;
1460;SDS011;724;49.910;12.530;2023-12-20T01:16:42;9.80;;;9.30;;
1460;SDS011;724;49.910;12.530;2023-12-20T01:19:08;9.90;;;9.40;;
1460;SDS011;724;49.910;12.530;2023-12-20T01:21:37;9.90;;;9.40;;
1460;SDS011;724;49.910;12.530;2023-12-20T01:24:03;9.40;;;8.90;;
1460;SDS011;724;49.910;12.530;2023-12-20T01:26:30;9.85;;;9.35;;
1460;SDS011;724;49.910;12.530;2023-12-20T01:28:57;9.45;;;8.95;;
1460;SDS011;724;49.910;12.530;2023-12-20T01:31:24;9.80;;;9.30;;
1460;SDS011;724;49.910;12.530;2023-12-20T01:33:52;8.98;;;8.48;;
1460;SDS011;724;49.910;12.530;2023-12-20T01:36:19;9.25;;;8.75;;
1460;SDS011;724;49.910;12.530;2023-12-20T01:38:47;9.50;;;9.00;;
1460;SDS011;724;49.910;12.530;2023-12-20T01:41:13;9.55;;;9.05;;
1460;SDS011;724;49.910;12.530;2023-12-20T01:43:40;9.70;;;9.20;;
1460;SDS011;724;49.910;12.530;2023-12-20T01:46:07;9.68;;;9.18;;
1460;SDS011;724;49.910;12.530;2023-12-20T01:48:33;9.27;;;8.77;;
1460;SDS011;724;49.910;12.530;2023-12-20T01:51:01;9.95;;;9.45;;
1460;SDS011;724;49.910;12.530;2023-12-20T01:53:28;9.52;;;9.02;;
1460;SDS011;724;49.910;12.530;2023-12-20T01:55:57;9.68;;;9.18;;
1460;SDS011;724;49.910;12.530;2023-12-20T01:58:25;10.00;;;9.50;;
1460;SDS011;724;49.910;12.530;2023-12-20T02:00:52;9.60;;;9.10;;
1460;SDS011;724;49.910;12.530;2023-12-20T02:03:20;9.38;;;8.88;;
1460;SDS011;724;49.910;12.530;2023-12-20T02:05:47;9.80;;;9.30;;
1460;SDS011;724;49.910;12.530;2023-12-20T02:08:14;9.40;;;8.90;;
1460;SDS011;724;49.910;12.530;2023-12-20T02:10:40;9.50;;;9.00;;
1460;SDS011;724;49.910;12.530;2023-12-20T02:13:09;9.50;;;9.00;;
1460;SDS011;724;49.910;12.530;2023-12-20T02:15:36;9.60;;;9.10;;
1460;SDS011;724;49.910;12.530;2023-12-20T02:18:03;9.60;;;9.10;;
1460;SDS011;724;49.910;12.530;2023-12-20T02:20:30;9.27;;;8.77;;
1460;SDS011;724;49.910;12.530;2023-12-20T02:22:58;9.23;;;8.73;;
1460;SDS011;724;49.910;12.530;2023-12-20T02:25:25;9.95;;;9.45;;
1460;SDS011;724;49.910;12.530;2023-12-20T02:27:52;9.73;;;9.23;;
1460;SDS011;724;49.910;12.530;2023-12-20T02:30:18;10.00;;;9.50;;
1460;SDS011;724;49.910;12.530;2023-12-20T02:32:45;9.90;;;9.40;;
1460;SDS011;724;49.910;12.530;2023-12-20T02:35:14;9.93;;;9.43;;
1460;SDS011;724;49.910;12.530;2023-12-20T02:37:41;9.60;;;9.10;;
1460;SDS011;724;49.910;12.530;2023-12-20T02:40:09;10.05;;;9.55;;
1460;SDS011;724;49.910;12.530;2023-12-20T02:42:36;10.02;;;9.52;;
1460;SDS011;724;49.910;12.530;2023-12-20T02:45:04;9.18;;;8.68;;
1460;SDS011;724;49.910;12.530;2023-12-20T02:47:32;10.10;;;9.60;;
1460;SDS011;724;49.910;12.530;2023-12-20T02:50:03;10.20;;;9.70;;
1460;SDS011;724;49.910;12.530;2023-12-20T02:52:30;10.05;;;9.55;;
1460;SDS011;724;49.910;12.530;2023-12-20T02:54:58;9.40;;;8.90;;
1460;SDS011;724;49.910;12.530;2023-12-20T02:57:26;9.50;;;9.00;;
1460;SDS011;724;49.910;12.530;2023-12-20T02:59:53;9.40;;;8.90;;
1460;SDS011;724;49.910;12.530;2023-12-20T03:02:19;9.27;;;8.77;;
1460;SDS011;724;49.910;12.530;2023-12-20T03:04:46;9.52;;;9.02;;
1460;SDS011;724;49.910;12.530;2023-12-20T03:07:13;9.40;;;8.90;;
1460;SDS011;724;49.910;12.530;2023-12-20T03:09:39;9.82;;;9.32;;
1460;SDS011;724;49.910;12.530;2023-12-20T03:12:07;8.95;;;8.45;;
1460;SDS011;724;49.910;12.530;2023-12-20T03:14:35;9.70;;;9.20;;
1460;SDS011;724;49.910;12.530;2023-12-20T03:17:02;9.60;;;9.10;;
1460;SDS011;724;49.910;12.530;2023-12-20T03:19:29;9.50;;;9.00;;
1460;SDS011;724;49.910;12.530;2023-12-20T03:21:56;10.15;;;9.65;;
1460;SDS011;724;49.910;12.530;2023-12-20T03:24:25;10.30;;;9.80;;
1460;SDS011;724;49.910;12.530;2023-12-20T03:26:52;9.70;;;9.20;;
1460;SDS011;724;49.910;12.530;2023-12-20T03:29:19;10.10;;;9.60;;
1460;SDS011;724;49.910;12.530;2023-12-20T03:31:47;10.80;;;10.20;;
1460;SDS011;724;49.910;12.530;2023-12-20T03:34:14;11.35;;;10.75;;
1460;SDS011;724;49.910;12.530;2023-12-20T03:36:41;10.38;;;9.85;;
1460;SDS011;724;49.910;12.530;2023-12-20T03:39:07;10.90;;;10.30;;
1460;SDS011;724;49.910;12.530;2023-12-20T03:41:35;11.10;;;10.50;;
1460;SDS011;724;49.910;12.530;2023-12-20T03:44:01;11.60;;;11.00;;
1460;SDS011;724;49.910;12.530;2023-12-20T03:46:28;11.10;;;10.50;;
1460;SDS011;724;49.910;12.530;2023-12-20T03:48:56;10.95;;;10.35;;
1460;SDS011;724;49.910;12.530;2023-12-20T03:51:23;10.70;;;10.10;;
1460;SDS011;724;49.910;12.530;2023-12-20T03:53:52;11.30;;;10.70;;
1460;SDS011;724;49.910;12.530;2023-12-20T03:56:18;11.10;;;10.50;;
1460;SDS011;724;49.910;12.530;2023-12-20T03:58:45;11.50;;;10.90;;
1460;SDS011;724;49.910;12.530;2023-12-20T04:01:12;11.25;;;10.65;;
1460;SDS011;724;49.910;12.530;2023-12-20T04:03:39;11.30;;;10.70;;
1460;SDS011;724;49.910;12.530;2023-12-20T04:06:07;11.77;;;11.18;;
1460;SDS011;724;49.910;12.530;2023-12-20T04:08:34;10.82;;;10.23;;
1460;SDS011;724;49.910;12.530;2023-12-20T04:11:01;11.38;;;10.77;;
1460;SDS011;724;49.910;12.530;2023-12-20T04:13:28;10.70;;;10.10;;
1460;SDS011;724;49.910;12.530;2023-12-20T04:15:55;10.27;;;9.77;;
1460;SDS011;724;49.910;12.530;2023-12-20T04:18:21;10.40;;;9.90;;
1460;SDS011;724;49.910;12.530;2023-12-20T04:20:48;10.90;;;10.30;;
1460;SDS011;724;49.910;12.530;2023-12-20T04:23:18;9.60;;;9.10;;
1460;SDS011;724;49.910;12.530;2023-12-20T04:25:44;9.70;;;9.20;;
1460;SDS011;724;49.910;12.530;2023-12-20T04:28:12;9.63;;;9.13;;
1460;SDS011;724;49.910;12.530;2023-12-20T04:30:38;9.93;;;9.43;;
1460;SDS011;724;49.910;12.530;2023-12-20T04:33:05;9.40;;;8.90;;
1460;SDS011;724;49.910;12.530;2023-12-20T04:35:33;9.70;;;9.20;;
1460;SDS011;724;49.910;12.530;2023-12-20T04:37:59;10.60;;;10.00;;
1460;SDS011;724;49.910;12.530;2023-12-20T04:40:28;10.60;;;10.00;;
1460;SDS011;724;49.910;12.530;2023-12-20T04:42:55;9.85;;;9.35;;
1460;SDS011;724;49.910;12.530;2023-12-20T04:45:22;9.73;;;9.23;;
1460;SDS011;724;49.910;12.530;2023-12-20T04:47:49;9.73;;;9.23;;
1460;SDS011;724;49.910;12.530;2023-12-20T04:50:16;9.50;;;9.00;;
1460;SDS011;724;49.910;12.530;2023-12-20T04:52:44;9.60;;;9.10;;
1460;SDS011;724;49.910;12.530;2023-12-20T04:55:12;9.43;;;8.93;;
1460;SDS011;724;49.910;12.530;2023-12-20T04:57:40;9.32;;;8.82;;
1460;SDS011;724;49.910;12.530;2023-12-20T05:00:08;8.82;;;8.32;;
1460;SDS011;724;49.910;12.530;2023-12-20T05:02:35;8.80;;;8.30;;
1460;SDS011;724;49.910;12.530;2023-12-20T05:05:02;9.65;;;9.15;;
1460;SDS011;724;49.910;12.530;2023-12-20T05:07:28;8.73;;;8.23;;
1460;SDS011;724;49.910;12.530;2023-12-20T05:09:55;8.90;;;8.40;;
1460;SDS011;724;49.910;12.530;2023-12-20T05:12:22;8.50;;;8.00;;
1460;SDS011;724;49.910;12.530;2023-12-20T05:14:50;8.70;;;8.20;;
1460;SDS011;724;49.910;12.530;2023-12-20T05:17:17;9.05;;;8.55;;
1460;SDS011;724;49.910;12.530;2023-12-20T05:19:45;8.80;;;8.30;;
1460;SDS011;724;49.910;12.530;2023-12-20T05:22:12;8.30;;;7.90;;
1460;SDS011;724;49.910;12.530;2023-12-20T05:24:39;8.60;;;8.10;;
1460;SDS011;724;49.910;12.530;2023-12-20T05:27:06;8.70;;;8.20;;
1460;SDS011;724;49.910;12.530;2023-12-20T05:29:32;8.30;;;7.90;;
1460;SDS011;724;49.910;12.530;2023-12-20T05:32:00;8.60;;;8.10;;
1460;SDS011;724;49.910;12.530;2023-12-20T05:34:28;8.00;;;7.60;;
1460;SDS011;724;49.910;12.530;2023-12-20T05:36:55;8.20;;;7.80;;
1460;SDS011;724;49.910;12.530;2023-12-20T05:39:22;8.50;;;8.00;;
1460;SDS011;724;49.910;12.530;2023-12-20T05:41:48;8.60;;;8.10;;
1460;SDS011;724;49.910;12.530;2023-12-20T05:44:15;8.50;;;8.00;;
1460;SDS011;724;49.910;12.530;2023-12-20T05:46:42;8.85;;;8.35;;
1460;SDS011;724;49.910;12.530;2023-12-20T05:49:10;8.20;;;7.80;;
1460;SDS011;724;49.910;12.530;2023-12-20T05:51:37;8.10;;;7.70;;
1460;SDS011;724;49.910;12.530;2023-12-20T05:54:03;8.77;;;8.27;;
1460;SDS011;724;49.910;12.530;2023-12-20T05:56:30;8.80;;;8.30;;
1460;SDS011;724;49.910;12.530;2023-12-20T05:58:57;9.00;;;8.50;;
1460;SDS011;724;49.910;12.530;2023-12-20T06:01:23;8.50;;;8.00;;
1460;SDS011;724;49.910;12.530;2023-12-20T06:03:50;8.52;;;8.05;;
1460;SDS011;724;49.910;12.530;2023-12-20T06:06:18;8.10;;;7.70;;
1460;SDS011;724;49.910;12.530;2023-12-20T06:08:45;8.55;;;8.05;;
1460;SDS011;724;49.910;12.530;2023-12-20T06:11:12;8.27;;;7.88;;
1460;SDS011;724;49.910;12.530;2023-12-20T06:13:38;8.60;;;8.10;;
1460;SDS011;724;49.910;12.530;2023-12-20T06:16:05;8.55;;;8.05;;
1460;SDS011;724;49.910;12.530;2023-12-20T06:18:32;8.20;;;7.80;;
1460;SDS011;724;49.910;12.530;2023-12-20T06:20:59;8.23;;;7.82;;
1460;SDS011;724;49.910;12.530;2023-12-20T06:23:27;8.57;;;8.07;;
1460;SDS011;724;49.910;12.530;2023-12-20T06:25:53;8.65;;;8.15;;
1460;SDS011;724;49.910;12.530;2023-12-20T06:28:20;8.10;;;7.70;;
1460;SDS011;724;49.910;12.530;2023-12-20T06:30:47;7.78;;;7.38;;
1460;SDS011;724;49.910;12.530;2023-12-20T06:33:14;7.40;;;7.00;;
1460;SDS011;724;49.910;12.530;2023-12-20T06:35:41;7.70;;;7.30;;
1460;SDS011;724;49.910;12.530;2023-12-20T06:38:08;7.25;;;6.85;;
1460;SDS011;724;49.910;12.530;2023-12-20T06:40:36;7.82;;;7.43;;
1460;SDS011;724;49.910;12.530;2023-12-20T06:43:03;8.10;;;7.70;;
1460;SDS011;724;49.910;12.530;2023-12-20T06:45:31;7.70;;;7.30;;
1460;SDS011;724;49.910;12.530;2023-12-20T06:47:58;8.00;;;7.60;;
1460;SDS011;724;49.910;12.530;2023-12-20T06:50:25;7.10;;;6.70;;
1460;SDS011;724;49.910;12.530;2023-12-20T06:52:52;7.45;;;7.05;;
1460;SDS011;724;49.910;12.530;2023-12-20T06:55:19;7.75;;;7.35;;
1460;SDS011;724;49.910;12.530;2023-12-20T06:57:47;7.40;;;7.00;;
1460;SDS011;724;49.910;12.530;2023-12-20T07:00:14;7.75;;;7.35;;
1460;SDS011;724;49.910;12.530;2023-12-20T07:02:43;7.70;;;7.30;;
1460;SDS011;724;49.910;12.530;2023-12-20T07:05:12;7.22;;;6.82;;
1460;SDS011;724;49.910;12.530;2023-12-20T07:07:42;6.90;;;6.50;;
1460;SDS011;724;49.910;12.530;2023-12-20T07:10:08;7.35;;;6.95;;
1460;SDS011;724;49.910;12.530;2023-12-20T07:12:35;7.32;;;6.93;;
1460;SDS011;724;49.910;12.530;2023-12-20T07:15:04;7.25;;;6.85;;
1460;SDS011;724;49.910;12.530;2023-12-20T07:17:32;7.53;;;7.13;;
1460;SDS011;724;49.910;12.530;2023-12-20T07:19:59;8.02;;;7.63;;
1460;SDS011;724;49.910;12.530;2023-12-20T07:22:28;7.00;;;6.60;;
1460;SDS011;724;49.910;12.530;2023-12-20T07:24:56;7.53;;;7.13;;
1460;SDS011;724;49.910;12.530;2023-12-20T07:27:23;8.02;;;7.63;;
1460;SDS011;724;49.910;12.530;2023-12-20T07:29:49;7.00;;;6.60;;
1460;SDS011;724;49.910;12.530;2023-12-20T07:32:18;7.03;;;6.63;;
1460;SDS011;724;49.910;12.530;2023-12-20T07:34:44;5.70;;;5.40;;
1460;SDS011;724;49.910;12.530;2023-12-20T07:37:11;5.85;;;5.55;;
1460;SDS011;724;49.910;12.530;2023-12-20T07:39:38;6.72;;;6.32;;
1460;SDS011;724;49.910;12.530;2023-12-20T07:42:06;6.53;;;6.13;;
1460;SDS011;724;49.910;12.530;2023-12-20T07:44:33;6.47;;;6.07;;
1460;SDS011;724;49.910;12.530;2023-12-20T07:47:00;7.18;;;6.78;;
1460;SDS011;724;49.910;12.530;2023-12-20T07:49:30;7.00;;;6.60;;
1460;SDS011;724;49.910;12.530;2023-12-20T07:51:56;7.00;;;6.60;;
1460;SDS011;724;49.910;12.530;2023-12-20T07:54:23;7.90;;;7.50;;
1460;SDS011;724;49.910;12.530;2023-12-20T07:56:50;6.95;;;6.55;;
1460;SDS011;724;49.910;12.530;2023-12-20T07:59:17;8.02;;;7.63;;
1460;SDS011;724;49.910;12.530;2023-12-20T08:01:43;8.70;;;8.20;;
1460;SDS011;724;49.910;12.530;2023-12-20T08:04:10;9.50;;;9.00;;
1460;SDS011;724;49.910;12.530;2023-12-20T08:06:38;9.90;;;9.40;;
1460;SDS011;724;49.910;12.530;2023-12-20T08:09:05;10.35;;;9.85;;
1460;SDS011;724;49.910;12.530;2023-12-20T08:11:32;9.10;;;8.60;;
1460;SDS011;724;49.910;12.530;2023-12-20T08:13:58;9.05;;;8.55;;
1460;SDS011;724;49.910;12.530;2023-12-20T08:16:25;9.00;;;8.50;;
1460;SDS011;724;49.910;12.530;2023-12-20T08:18:52;8.88;;;8.38;;
1460;SDS011;724;49.910;12.530;2023-12-20T08:21:19;8.98;;;8.48;;
1460;SDS011;724;49.910;12.530;2023-12-20T08:23:48;9.05;;;8.55;;
1460;SDS011;724;49.910;12.530;2023-12-20T08:26:18;9.10;;;8.60;;
1460;SDS011;724;49.910;12.530;2023-12-20T08:28:46;9.20;;;8.70;;
1460;SDS011;724;49.910;12.530;2023-12-20T08:31:13;9.07;;;8.57;;
1460;SDS011;724;49.910;12.530;2023-12-20T08:33:41;9.00;;;8.50;;
1460;SDS011;724;49.910;12.530;2023-12-20T08:36:09;8.90;;;8.40;;
1460;SDS011;724;49.910;12.530;2023-12-20T08:38:36;8.60;;;8.10;;
1460;SDS011;724;49.910;12.530;2023-12-20T08:41:04;9.20;;;8.70;;
1460;SDS011;724;49.910;12.530;2023-12-20T08:43:31;8.65;;;8.15;;
1460;SDS011;724;49.910;12.530;2023-12-20T08:45:58;9.35;;;8.85;;
1460;SDS011;724;49.910;12.530;2023-12-20T08:48:24;8.90;;;8.40;;
1460;SDS011;724;49.910;12.530;2023-12-20T08:50:51;9.43;;;8.93;;
1460;SDS011;724;49.910;12.530;2023-12-20T08:53:18;9.00;;;8.50;;
1460;SDS011;724;49.910;12.530;2023-12-20T08:55:44;9.30;;;8.80;;
1460;SDS011;724;49.910;12.530;2023-12-20T08:58:13;9.10;;;8.60;;
1460;SDS011;724;49.910;12.530;2023-12-20T09:00:39;9.20;;;8.70;;
1460;SDS011;724;49.910;12.530;2023-12-20T09:03:06;9.20;;;8.70;;
1460;SDS011;724;49.910;12.530;2023-12-20T09:05:33;9.25;;;8.75;;
1460;SDS011;724;49.910;12.530;2023-12-20T09:08:00;9.50;;;9.00;;
1460;SDS011;724;49.910;12.530;2023-12-20T09:10:26;8.90;;;8.40;;
1460;SDS011;724;49.910;12.530;2023-12-20T09:12:53;9.50;;;9.00;;
1460;SDS011;724;49.910;12.530;2023-12-20T09:15:23;9.65;;;9.15;;
1460;SDS011;724;49.910;12.530;2023-12-20T09:17:50;9.70;;;9.20;;
1460;SDS011;724;49.910;12.530;2023-12-20T09:20:17;9.70;;;9.20;;
1460;SDS011;724;49.910;12.530;2023-12-20T09:22:44;9.77;;;9.27;;
1460;SDS011;724;49.910;12.530;2023-12-20T09:25:12;11.10;;;10.50;;
1460;SDS011;724;49.910;12.530;2023-12-20T09:27:40;12.30;;;11.70;;
1460;SDS011;724;49.910;12.530;2023-12-20T09:30:08;12.98;;;12.27;;
1460;SDS011;724;49.910;12.530;2023-12-20T09:32:36;13.70;;;13.00;;
1460;SDS011;724;49.910;12.530;2023-12-20T09:35:04;14.27;;;13.57;;
1460;SDS011;724;49.910;12.530;2023-12-20T09:37:34;15.20;;;14.40;;
1460;SDS011;724;49.910;12.530;2023-12-20T09:40:02;15.80;;;15.00;;
1460;SDS011;724;49.910;12.530;2023-12-20T09:42:30;15.93;;;15.13;;
1460;SDS011;724;49.910;12.530;2023-12-20T09:45:07;16.30;;;15.50;;
1460;SDS011;724;49.910;12.530;2023-12-20T09:47:36;16.20;;;15.40;;
1460;SDS011;724;49.910;12.530;2023-12-20T09:50:04;16.50;;;15.70;;
1460;SDS011;724;49.910;12.530;2023-12-20T09:52:31;16.50;;;15.70;;
1460;SDS011;724;49.910;12.530;2023-12-20T09:55:00;16.35;;;15.55;;
1460;SDS011;724;49.910;12.530;2023-12-20T09:57:30;16.20;;;15.40;;
1460;SDS011;724;49.910;12.530;2023-12-20T09:59:57;16.42;;;15.63;;
1460;SDS011;724;49.910;12.530;2023-12-20T10:02:24;16.38;;;15.57;;
1460;SDS011;724;49.910;12.530;2023-12-20T10:04:54;16.30;;;15.50;;
1460;SDS011;724;49.910;12.530;2023-12-20T10:07:21;15.93;;;15.13;;
1460;SDS011;724;49.910;12.530;2023-12-20T10:09:48;15.45;;;14.65;;
1460;SDS011;724;49.910;12.530;2023-12-20T10:12:17;15.43;;;14.63;;
1460;SDS011;724;49.910;12.530;2023-12-20T10:14:44;15.20;;;14.40;;
1460;SDS011;724;49.910;12.530;2023-12-20T10:17:12;15.55;;;14.75;;
1460;SDS011;724;49.910;12.530;2023-12-20T10:19:38;15.60;;;14.80;;
1460;SDS011;724;49.910;12.530;2023-12-20T10:22:07;15.38;;;14.57;;
1460;SDS011;724;49.910;12.530;2023-12-20T10:24:33;15.25;;;14.45;;
1460;SDS011;724;49.910;12.530;2023-12-20T10:27:02;15.50;;;14.70;;
1460;SDS011;724;49.910;12.530;2023-12-20T10:29:31;14.93;;;14.13;;
1460;SDS011;724;49.910;12.530;2023-12-20T10:32:01;14.60;;;13.90;;
1460;SDS011;724;49.910;12.530;2023-12-20T10:34:48;14.60;;;13.90;;
1460;SDS011;724;49.910;12.530;2023-12-20T10:37:16;14.30;;;13.60;;
1460;SDS011;724;49.910;12.530;2023-12-20T10:39:43;14.55;;;13.85;;
1460;SDS011;724;49.910;12.530;2023-12-20T10:42:10;14.55;;;13.85;;
1460;SDS011;724;49.910;12.530;2023-12-20T10:44:40;14.10;;;13.40;;
1460;SDS011;724;49.910;12.530;2023-12-20T10:47:07;14.20;;;13.50;;
1460;SDS011;724;49.910;12.530;2023-12-20T10:49:37;14.13;;;13.43;;
1460;SDS011;724;49.910;12.530;2023-12-20T10:52:06;14.15;;;13.45;;
1460;SDS011;724;49.910;12.530;2023-12-20T10:54:36;14.18;;;13.48;;
1460;SDS011;724;49.910;12.530;2023-12-20T10:57:03;13.90;;;13.20;;
1460;SDS011;724;49.910;12.530;2023-12-20T10:59:33;13.75;;;13.05;;
1460;SDS011;724;49.910;12.530;2023-12-20T11:02:02;13.95;;;13.25;;
1460;SDS011;724;49.910;12.530;2023-12-20T11:04:35;13.80;;;13.10;;
1460;SDS011;724;49.910;12.530;2023-12-20T11:07:13;13.43;;;12.73;;
1460;SDS011;724;49.910;12.530;2023-12-20T11:09:49;13.93;;;13.23;;
1460;SDS011;724;49.910;12.530;2023-12-20T11:12:26;14.23;;;13.52;;
1460;SDS011;724;49.910;12.530;2023-12-20T11:15:00;13.82;;;13.13;;
1460;SDS011;724;49.910;12.530;2023-12-20T11:17:29;14.30;;;13.60;;
1460;SDS011;724;49.910;12.530;2023-12-20T11:20:04;14.20;;;13.50;;
1460;SDS011;724;49.910;12.530;2023-12-20T11:22:37;14.27;;;13.57;;
1460;SDS011;724;49.910;12.530;2023-12-20T11:25:08;14.20;;;13.50;;
1460;SDS011;724;49.910;12.530;2023-12-20T11:27:37;14.45;;;13.75;;
1460;SDS011;724;49.910;12.530;2023-12-20T11:30:08;14.65;;;13.93;;
1460;SDS011;724;49.910;12.530;2023-12-20T11:32:36;14.40;;;13.70;;
1460;SDS011;724;49.910;12.530;2023-12-20T11:35:16;14.30;;;13.60;;
1460;SDS011;724;49.910;12.530;2023-12-20T11:37:45;14.20;;;13.50;;
1460;SDS011;724;49.910;12.530;2023-12-20T11:40:15;14.30;;;13.60;;
1460;SDS011;724;49.910;12.530;2023-12-20T11:42:43;14.40;;;13.70;;
1460;SDS011;724;49.910;12.530;2023-12-20T11:45:11;14.20;;;13.50;;
1460;SDS011;724;49.910;12.530;2023-12-20T11:47:41;14.55;;;13.85;;
1460;SDS011;724;49.910;12.530;2023-12-20T11:50:09;14.30;;;13.60;;
1460;SDS011;724;49.910;12.530;2023-12-20T11:52:36;14.52;;;13.82;;
1460;SDS011;724;49.910;12.530;2023-12-20T11:55:03;15.15;;;14.35;;
1460;SDS011;724;49.910;12.530;2023-12-20T11:57:32;14.30;;;13.60;;
1460;SDS011;724;49.910;12.530;2023-12-20T11:59:59;14.93;;;14.13;;
1460;SDS011;724;49.910;12.530;2023-12-20T12:02:26;14.23;;;13.52;;
1460;SDS011;724;49.910;12.530;2023-12-20T12:04:52;14.55;;;13.85;;
1460;SDS011;724;49.910;12.530;2023-12-20T12:07:21;14.40;;;13.70;;
1460;SDS011;724;49.910;12.530;2023-12-20T12:09:48;14.20;;;13.50;;
1460;SDS011;724;49.910;12.530;2023-12-20T12:12:15;14.32;;;13.63;;
1460;SDS011;724;49.910;12.530;2023-12-20T12:14:45;14.02;;;13.32;;
1460;SDS011;724;49.910;12.530;2023-12-20T12:17:12;13.98;;;13.27;;
1460;SDS011;724;49.910;12.530;2023-12-20T12:19:40;14.00;;;13.30;;
1460;SDS011;724;49.910;12.530;2023-12-20T12:22:08;14.10;;;13.40;;
1460;SDS011;724;49.910;12.530;2023-12-20T12:24:38;14.20;;;13.50;;
1460;SDS011;724;49.910;12.530;2023-12-20T12:27:05;14.50;;;13.80;;
1460;SDS011;724;49.910;12.530;2023-12-20T12:29:33;14.30;;;13.60;;
1460;SDS011;724;49.910;12.530;2023-12-20T12:32:04;14.30;;;13.60;;
1460;SDS011;724;49.910;12.530;2023-12-20T12:34:32;14.20;;;13.50;;
1460;SDS011;724;49.910;12.530;2023-12-20T12:36:59;14.15;;;13.45;;
1460;SDS011;724;49.910;12.530;2023-12-20T12:39:26;14.80;;;14.00;;
1460;SDS011;724;49.910;12.530;2023-12-20T12:41:54;13.60;;;12.90;;
1460;SDS011;724;49.910;12.530;2023-12-20T12:44:22;13.82;;;13.13;;
1460;SDS011;724;49.910;12.530;2023-12-20T12:46:50;14.20;;;13.50;;
1460;SDS011;724;49.910;12.530;2023-12-20T12:49:20;14.30;;;13.60;;
1460;SDS011;724;49.910;12.530;2023-12-20T12:51:47;14.10;;;13.40;;
1460;SDS011;724;49.910;12.530;2023-12-20T12:54:13;14.40;;;13.70;;
1460;SDS011;724;49.910;12.530;2023-12-20T12:56:41;14.60;;;13.90;;
1460;SDS011;724;49.910;12.530;2023-12-20T12:59:08;14.60;;;13.90;;
1460;SDS011;724;49.910;12.530;2023-12-20T13:01:36;14.50;;;13.80;;
1460;SDS011;724;49.910;12.530;2023-12-20T13:04:03;14.40;;;13.70;;
1460;SDS011;724;49.910;12.530;2023-12-20T13:06:36;14.25;;;13.55;;
1460;SDS011;724;49.910;12.530;2023-12-20T13:09:03;14.00;;;13.30;;
1460;SDS011;724;49.910;12.530;2023-12-20T13:11:30;14.10;;;13.40;;
1460;SDS011;724;49.910;12.530;2023-12-20T13:13:58;14.00;;;13.30;;
1460;SDS011;724;49.910;12.530;2023-12-20T13:16:25;13.95;;;13.25;;
1460;SDS011;724;49.910;12.530;2023-12-20T13:18:52;13.73;;;13.02;;
1460;SDS011;724;49.910;12.530;2023-12-20T13:21:18;13.80;;;13.10;;
1460;SDS011;724;49.910;12.530;2023-12-20T13:23:47;13.90;;;13.20;;
1460;SDS011;724;49.910;12.530;2023-12-20T13:26:14;13.30;;;12.60;;
1460;SDS011;724;49.910;12.530;2023-12-20T13:28:40;13.30;;;12.60;;
1460;SDS011;724;49.910;12.530;2023-12-20T13:31:07;13.20;;;12.50;;
1460;SDS011;724;49.910;12.530;2023-12-20T13:33:34;13.30;;;12.60;;
1460;SDS011;724;49.910;12.530;2023-12-20T13:36:01;13.30;;;12.60;;
1460;SDS011;724;49.910;12.530;2023-12-20T13:38:28;13.20;;;12.50;;
1460;SDS011;724;49.910;12.530;2023-12-20T13:40:57;12.98;;;12.27;;
1460;SDS011;724;49.910;12.530;2023-12-20T13:43:24;13.00;;;12.30;;
1460;SDS011;724;49.910;12.530;2023-12-20T13:45:50;12.95;;;12.25;;
1460;SDS011;724;49.910;12.530;2023-12-20T13:48:17;13.02;;;12.32;;
1460;SDS011;724;49.910;12.530;2023-12-20T13:50:44;13.00;;;12.30;;
1460;SDS011;724;49.910;12.530;2023-12-20T13:53:11;12.95;;;12.25;;
1460;SDS011;724;49.910;12.530;2023-12-20T13:55:38;13.15;;;12.45;;
1460;SDS011;724;49.910;12.530;2023-12-20T13:58:06;13.25;;;12.55;;
1460;SDS011;724;49.910;12.530;2023-12-20T14:00:35;13.30;;;12.60;;
1460;SDS011;724;49.910;12.530;2023-12-20T14:03:01;13.30;;;12.60;;
1460;SDS011;724;49.910;12.530;2023-12-20T14:05:29;13.30;;;12.60;;
1460;SDS011;724;49.910;12.530;2023-12-20T14:07:56;13.80;;;13.10;;
1460;SDS011;724;49.910;12.530;2023-12-20T14:10:23;13.30;;;12.60;;
1460;SDS011;724;49.910;12.530;2023-12-20T14:12:58;13.20;;;12.50;;
1460;SDS011;724;49.910;12.530;2023-12-20T14:15:26;13.25;;;12.55;;
1460;SDS011;724;49.910;12.530;2023-12-20T14:17:53;13.30;;;12.60;;
1460;SDS011;724;49.910;12.530;2023-12-20T14:20:20;12.80;;;12.10;;
1460;SDS011;724;49.910;12.530;2023-12-20T14:22:47;13.27;;;12.57;;
1460;SDS011;724;49.910;12.530;2023-12-20T14:25:14;13.18;;;12.48;;
1460;SDS011;724;49.910;12.530;2023-12-20T14:27:41;13.23;;;12.52;;
1460;SDS011;724;49.910;12.530;2023-12-20T14:30:09;13.10;;;12.40;;
1460;SDS011;724;49.910;12.530;2023-12-20T14:32:40;13.00;;;12.30;;
1460;SDS011;724;49.910;12.530;2023-12-20T14:35:07;13.07;;;12.38;;
1460;SDS011;724;49.910;12.530;2023-12-20T14:37:34;12.80;;;12.10;;
1460;SDS011;724;49.910;12.530;2023-12-20T14:40:04;13.00;;;12.30;;
1460;SDS011;724;49.910;12.530;2023-12-20T14:42:31;12.70;;;12.00;;
1460;SDS011;724;49.910;12.530;2023-12-20T14:44:58;12.23;;;11.63;;
1460;SDS011;724;49.910;12.530;2023-12-20T14:47:25;11.85;;;11.25;;
1460;SDS011;724;49.910;12.530;2023-12-20T14:49:53;11.68;;;11.07;;
1460;SDS011;724;49.910;12.530;2023-12-20T14:52:20;11.60;;;11.00;;
1460;SDS011;724;49.910;12.530;2023-12-20T14:54:48;11.57;;;10.98;;
1460;SDS011;724;49.910;12.530;2023-12-20T14:57:14;11.80;;;11.20;;
1460;SDS011;724;49.910;12.530;2023-12-20T14:59:43;11.85;;;11.25;;
1460;SDS011;724;49.910;12.530;2023-12-20T15:02:09;11.40;;;10.80;;
1460;SDS011;724;49.910;12.530;2023-12-20T15:04:36;11.20;;;10.60;;